LXGB/GIB METAR and TAF weather

Enter ICAO airport designator
Station Type Date Time Source
LXGB METAR 2019/02/18 03:50 UTC NOAA

LXGB 180350Z AUTO 08014KT 9999 // BKN030/// 15/11 Q1018


Station Type Date Time Source
LXGB Decoded METAR 2019/02/18 03:50 UTC NOAA

Gibraltar, Gibraltar (LXGB) 36-09N 005-21W 0M
Feb 17, 2019 - 10:50 PM EST / 2019.02.18 0350 UTC
Wind: from the E (080 degrees) at 16 MPH (14 KT):0
Visibility: greater than 7 mile(s):0
Sky conditions: mostly cloudy
Temperature: 59 F (15 C)
Dew Point: 51 F (11 C)
Relative Humidity: 76%
Pressure (altimeter): 30.06 in. Hg (1018 hPa)
ob: LXGB 180350Z AUTO 08014KT 9999 // BKN030/// 15/11 Q1018
cycle: 4

Station Type Date Time Source
LXGB TAF 2019/01/30 21:20 UTC NOAA

TAF LXGB 302113Z 3021/3123 CNL


Example: see airport list